Terminal Aerodrome Forecast
Issued by NWS Wakefield, VA

Home | Current Version | Previous Version | Text Only | Print | Product List | Glossary On
Versions: 1 2 3 4 5 6 7 8 9 10 11 12 13 14
000
FTUS41 KAKQ 020100 AAA
TAFRIC
TAF AMD
KRIC 020129Z 0201/0224 15008KT P6SM BKN050 OVC100
      TEMPO 0202/0205 -RA
     FM020500 18013G21KT P6SM -RA SCT025 OVC040
     FM020700 20015G24KT 5SM -RA BR BKN015 OVC030
     FM020900 21015G25KT 3SM -RA BR OVC007
     FM021500 26015G25KT P6SM -RA BKN015 OVC040
     FM021800 29017G28KT P6SM BKN050=

USA.gov is the U.S. government's official web portal to all federal, state and local government web resources and services.